sensor_id;sensor_type;location;lat;lon;timestamp;P1;durP1;ratioP1;P2;durP2;ratioP2
4646;SDS011;2336;47.822;7.564;2023-05-10T00:01:47;0.80;;;0.80;;
4646;SDS011;2336;47.822;7.564;2023-05-10T00:04:13;2.17;;;0.90;;
4646;SDS011;2336;47.822;7.564;2023-05-10T00:06:40;1.90;;;0.90;;
4646;SDS011;2336;47.822;7.564;2023-05-10T00:09:07;1.33;;;0.90;;
4646;SDS011;2336;47.822;7.564;2023-05-10T00:11:33;3.37;;;1.00;;
4646;SDS011;2336;47.822;7.564;2023-05-10T00:14:01;1.50;;;1.40;;
4646;SDS011;2336;47.822;7.564;2023-05-10T00:16:28;1.10;;;1.10;;
4646;SDS011;2336;47.822;7.564;2023-05-10T00:18:55;2.53;;;0.73;;
4646;SDS011;2336;47.822;7.564;2023-05-10T00:21:22;1.23;;;0.80;;
4646;SDS011;2336;47.822;7.564;2023-05-10T00:23:48;1.03;;;0.80;;
4646;SDS011;2336;47.822;7.564;2023-05-10T00:26:15;1.00;;;0.90;;
4646;SDS011;2336;47.822;7.564;2023-05-10T00:28:42;1.13;;;1.10;;
4646;SDS011;2336;47.822;7.564;2023-05-10T00:31:10;1.13;;;0.90;;
4646;SDS011;2336;47.822;7.564;2023-05-10T00:33:37;2.80;;;0.93;;
4646;SDS011;2336;47.822;7.564;2023-05-10T00:36:04;1.17;;;1.07;;
4646;SDS011;2336;47.822;7.564;2023-05-10T00:38:32;2.23;;;0.80;;
4646;SDS011;2336;47.822;7.564;2023-05-10T00:40:59;2.50;;;1.07;;
4646;SDS011;2336;47.822;7.564;2023-05-10T00:43:26;0.80;;;0.80;;
4646;SDS011;2336;47.822;7.564;2023-05-10T00:45:53;2.10;;;0.90;;
4646;SDS011;2336;47.822;7.564;2023-05-10T00:48:21;1.37;;;1.10;;
4646;SDS011;2336;47.822;7.564;2023-05-10T00:50:48;2.30;;;1.20;;
4646;SDS011;2336;47.822;7.564;2023-05-10T00:53:15;1.63;;;1.00;;
4646;SDS011;2336;47.822;7.564;2023-05-10T00:55:42;0.97;;;0.97;;
4646;SDS011;2336;47.822;7.564;2023-05-10T00:58:09;1.07;;;1.07;;
4646;SDS011;2336;47.822;7.564;2023-05-10T01:00:37;2.03;;;1.10;;
4646;SDS011;2336;47.822;7.564;2023-05-10T01:03:07;1.43;;;1.10;;
4646;SDS011;2336;47.822;7.564;2023-05-10T01:05:35;1.23;;;1.00;;
4646;SDS011;2336;47.822;7.564;2023-05-10T01:08:02;3.27;;;1.10;;
4646;SDS011;2336;47.822;7.564;2023-05-10T01:10:29;2.67;;;1.30;;
4646;SDS011;2336;47.822;7.564;2023-05-10T01:12:56;0.87;;;0.87;;
4646;SDS011;2336;47.822;7.564;2023-05-10T01:15:25;1.63;;;1.00;;
4646;SDS011;2336;47.822;7.564;2023-05-10T01:17:52;0.90;;;0.90;;
4646;SDS011;2336;47.822;7.564;2023-05-10T01:20:19;2.40;;;0.80;;
4646;SDS011;2336;47.822;7.564;2023-05-10T01:22:53;0.83;;;0.83;;
4646;SDS011;2336;47.822;7.564;2023-05-10T01:25:49;1.00;;;1.00;;
4646;SDS011;2336;47.822;7.564;2023-05-10T01:28:38;2.83;;;0.80;;
4646;SDS011;2336;47.822;7.564;2023-05-10T01:31:18;1.47;;;0.80;;
4646;SDS011;2336;47.822;7.564;2023-05-10T01:33:59;1.17;;;0.90;;
4646;SDS011;2336;47.822;7.564;2023-05-10T01:36:30;1.10;;;1.00;;
4646;SDS011;2336;47.822;7.564;2023-05-10T01:38:59;0.83;;;0.83;;
4646;SDS011;2336;47.822;7.564;2023-05-10T01:41:35;1.17;;;0.90;;
4646;SDS011;2336;47.822;7.564;2023-05-10T01:44:10;1.60;;;1.10;;
4646;SDS011;2336;47.822;7.564;2023-05-10T01:46:42;1.00;;;1.00;;
4646;SDS011;2336;47.822;7.564;2023-05-10T01:49:23;1.67;;;1.23;;
4646;SDS011;2336;47.822;7.564;2023-05-10T01:51:53;1.40;;;0.73;;
4646;SDS011;2336;47.822;7.564;2023-05-10T01:54:23;1.40;;;0.83;;
4646;SDS011;2336;47.822;7.564;2023-05-10T01:56:52;3.33;;;0.93;;
4646;SDS011;2336;47.822;7.564;2023-05-10T01:59:23;1.90;;;1.10;;
4646;SDS011;2336;47.822;7.564;2023-05-10T02:01:56;1.40;;;1.10;;
4646;SDS011;2336;47.822;7.564;2023-05-10T02:04:27;0.80;;;0.80;;
4646;SDS011;2336;47.822;7.564;2023-05-10T02:06:54;1.00;;;1.00;;
4646;SDS011;2336;47.822;7.564;2023-05-10T02:09:22;2.10;;;0.90;;
4646;SDS011;2336;47.822;7.564;2023-05-10T02:11:51;1.20;;;1.20;;
4646;SDS011;2336;47.822;7.564;2023-05-10T02:14:19;2.67;;;1.10;;
4646;SDS011;2336;47.822;7.564;2023-05-10T02:16:49;1.77;;;1.20;;
4646;SDS011;2336;47.822;7.564;2023-05-10T02:19:18;1.97;;;1.13;;
4646;SDS011;2336;47.822;7.564;2023-05-10T02:21:49;4.30;;;1.03;;
4646;SDS011;2336;47.822;7.564;2023-05-10T02:24:17;1.30;;;1.30;;
4646;SDS011;2336;47.822;7.564;2023-05-10T02:26:46;1.10;;;1.10;;
4646;SDS011;2336;47.822;7.564;2023-05-10T02:29:14;0.93;;;0.93;;
4646;SDS011;2336;47.822;7.564;2023-05-10T02:31:42;5.23;;;1.13;;
4646;SDS011;2336;47.822;7.564;2023-05-10T02:34:10;1.63;;;1.37;;
4646;SDS011;2336;47.822;7.564;2023-05-10T02:36:37;1.10;;;1.00;;
4646;SDS011;2336;47.822;7.564;2023-05-10T02:39:07;1.30;;;1.30;;
4646;SDS011;2336;47.822;7.564;2023-05-10T02:41:37;2.50;;;1.00;;
4646;SDS011;2336;47.822;7.564;2023-05-10T02:44:05;1.27;;;0.90;;
4646;SDS011;2336;47.822;7.564;2023-05-10T02:46:34;1.00;;;1.00;;
4646;SDS011;2336;47.822;7.564;2023-05-10T02:49:02;1.10;;;1.10;;
4646;SDS011;2336;47.822;7.564;2023-05-10T02:51:31;1.50;;;1.30;;
4646;SDS011;2336;47.822;7.564;2023-05-10T02:54:01;2.93;;;1.10;;
4646;SDS011;2336;47.822;7.564;2023-05-10T02:56:36;1.30;;;1.30;;
4646;SDS011;2336;47.822;7.564;2023-05-10T02:59:08;1.93;;;1.10;;
4646;SDS011;2336;47.822;7.564;2023-05-10T03:01:36;1.30;;;1.30;;
4646;SDS011;2336;47.822;7.564;2023-05-10T03:04:02;3.13;;;1.30;;
4646;SDS011;2336;47.822;7.564;2023-05-10T03:06:30;1.90;;;1.13;;
4646;SDS011;2336;47.822;7.564;2023-05-10T03:08:56;2.23;;;1.40;;
4646;SDS011;2336;47.822;7.564;2023-05-10T03:11:28;1.30;;;1.17;;
4646;SDS011;2336;47.822;7.564;2023-05-10T03:14:10;1.07;;;1.00;;
4646;SDS011;2336;47.822;7.564;2023-05-10T03:16:45;1.80;;;1.30;;
4646;SDS011;2336;47.822;7.564;2023-05-10T03:19:16;1.90;;;1.00;;
4646;SDS011;2336;47.822;7.564;2023-05-10T03:21:49;1.13;;;1.10;;
4646;SDS011;2336;47.822;7.564;2023-05-10T03:24:18;5.50;;;1.43;;
4646;SDS011;2336;47.822;7.564;2023-05-10T03:26:49;1.13;;;1.13;;
4646;SDS011;2336;47.822;7.564;2023-05-10T03:29:18;1.13;;;1.13;;
4646;SDS011;2336;47.822;7.564;2023-05-10T03:31:46;1.10;;;1.10;;
4646;SDS011;2336;47.822;7.564;2023-05-10T03:34:13;1.40;;;1.30;;
4646;SDS011;2336;47.822;7.564;2023-05-10T03:36:40;1.23;;;1.23;;
4646;SDS011;2336;47.822;7.564;2023-05-10T03:39:07;1.43;;;1.30;;
4646;SDS011;2336;47.822;7.564;2023-05-10T03:41:33;1.20;;;1.20;;
4646;SDS011;2336;47.822;7.564;2023-05-10T03:44:00;1.50;;;1.40;;
4646;SDS011;2336;47.822;7.564;2023-05-10T03:46:28;1.50;;;1.40;;
4646;SDS011;2336;47.822;7.564;2023-05-10T03:48:55;1.60;;;1.60;;
4646;SDS011;2336;47.822;7.564;2023-05-10T03:51:21;1.67;;;1.57;;
4646;SDS011;2336;47.822;7.564;2023-05-10T03:53:50;1.67;;;1.20;;
4646;SDS011;2336;47.822;7.564;2023-05-10T03:56:16;4.73;;;1.43;;
4646;SDS011;2336;47.822;7.564;2023-05-10T03:58:43;1.93;;;1.20;;
4646;SDS011;2336;47.822;7.564;2023-05-10T04:01:10;1.20;;;1.20;;
4646;SDS011;2336;47.822;7.564;2023-05-10T04:03:38;2.13;;;1.70;;
4646;SDS011;2336;47.822;7.564;2023-05-10T04:06:05;1.50;;;1.50;;
4646;SDS011;2336;47.822;7.564;2023-05-10T04:08:34;2.00;;;1.90;;
4646;SDS011;2336;47.822;7.564;2023-05-10T04:11:06;2.40;;;1.33;;
4646;SDS011;2336;47.822;7.564;2023-05-10T04:13:33;2.07;;;1.63;;
4646;SDS011;2336;47.822;7.564;2023-05-10T04:16:00;1.90;;;1.80;;
4646;SDS011;2336;47.822;7.564;2023-05-10T04:18:27;1.97;;;1.80;;
4646;SDS011;2336;47.822;7.564;2023-05-10T04:20:55;3.23;;;1.40;;
4646;SDS011;2336;47.822;7.564;2023-05-10T04:23:22;2.13;;;1.40;;
4646;SDS011;2336;47.822;7.564;2023-05-10T04:25:49;1.50;;;1.50;;
4646;SDS011;2336;47.822;7.564;2023-05-10T04:28:15;1.67;;;1.33;;
4646;SDS011;2336;47.822;7.564;2023-05-10T04:30:42;1.10;;;1.10;;
4646;SDS011;2336;47.822;7.564;2023-05-10T04:33:09;1.70;;;1.60;;
4646;SDS011;2336;47.822;7.564;2023-05-10T04:35:35;1.37;;;1.27;;
4646;SDS011;2336;47.822;7.564;2023-05-10T04:38:03;1.30;;;1.30;;
4646;SDS011;2336;47.822;7.564;2023-05-10T04:40:30;1.70;;;1.60;;
4646;SDS011;2336;47.822;7.564;2023-05-10T04:42:57;1.93;;;1.83;;
4646;SDS011;2336;47.822;7.564;2023-05-10T04:45:24;1.40;;;1.30;;
4646;SDS011;2336;47.822;7.564;2023-05-10T04:47:50;1.40;;;1.40;;
4646;SDS011;2336;47.822;7.564;2023-05-10T04:50:17;2.87;;;1.73;;
4646;SDS011;2336;47.822;7.564;2023-05-10T04:52:44;1.40;;;1.30;;
4646;SDS011;2336;47.822;7.564;2023-05-10T04:55:12;1.30;;;1.30;;
4646;SDS011;2336;47.822;7.564;2023-05-10T04:57:39;2.30;;;1.30;;
4646;SDS011;2336;47.822;7.564;2023-05-10T05:00:06;1.30;;;1.30;;
4646;SDS011;2336;47.822;7.564;2023-05-10T05:02:34;4.20;;;1.27;;
4646;SDS011;2336;47.822;7.564;2023-05-10T05:05:01;1.70;;;1.40;;
4646;SDS011;2336;47.822;7.564;2023-05-10T05:07:27;2.10;;;1.40;;
4646;SDS011;2336;47.822;7.564;2023-05-10T05:09:55;1.30;;;1.30;;
4646;SDS011;2336;47.822;7.564;2023-05-10T05:12:23;1.60;;;1.50;;
4646;SDS011;2336;47.822;7.564;2023-05-10T05:14:50;1.60;;;1.50;;
4646;SDS011;2336;47.822;7.564;2023-05-10T05:17:16;3.37;;;1.50;;
4646;SDS011;2336;47.822;7.564;2023-05-10T05:19:43;1.27;;;1.10;;
4646;SDS011;2336;47.822;7.564;2023-05-10T05:22:10;1.40;;;1.30;;
4646;SDS011;2336;47.822;7.564;2023-05-10T05:24:37;1.50;;;1.40;;
4646;SDS011;2336;47.822;7.564;2023-05-10T05:27:03;1.40;;;1.27;;
4646;SDS011;2336;47.822;7.564;2023-05-10T05:29:32;1.13;;;1.13;;
4646;SDS011;2336;47.822;7.564;2023-05-10T05:31:58;1.10;;;1.10;;
4646;SDS011;2336;47.822;7.564;2023-05-10T05:34:25;1.03;;;1.03;;
4646;SDS011;2336;47.822;7.564;2023-05-10T05:36:52;1.20;;;1.10;;
4646;SDS011;2336;47.822;7.564;2023-05-10T05:39:18;2.83;;;1.30;;
4646;SDS011;2336;47.822;7.564;2023-05-10T05:41:45;0.90;;;0.90;;
4646;SDS011;2336;47.822;7.564;2023-05-10T05:44:12;1.40;;;1.30;;
4646;SDS011;2336;47.822;7.564;2023-05-10T05:46:40;1.00;;;1.00;;
4646;SDS011;2336;47.822;7.564;2023-05-10T05:49:07;1.63;;;1.30;;
4646;SDS011;2336;47.822;7.564;2023-05-10T05:51:33;1.40;;;1.30;;
4646;SDS011;2336;47.822;7.564;2023-05-10T05:54:00;1.60;;;1.50;;
4646;SDS011;2336;47.822;7.564;2023-05-10T05:56:29;2.60;;;1.30;;
4646;SDS011;2336;47.822;7.564;2023-05-10T05:58:55;3.27;;;1.60;;
4646;SDS011;2336;47.822;7.564;2023-05-10T06:01:22;1.50;;;1.27;;
4646;SDS011;2336;47.822;7.564;2023-05-10T06:03:50;2.70;;;1.60;;
4646;SDS011;2336;47.822;7.564;2023-05-10T06:06:17;1.77;;;1.67;;
4646;SDS011;2336;47.822;7.564;2023-05-10T06:08:43;1.53;;;1.47;;
4646;SDS011;2336;47.822;7.564;2023-05-10T06:11:10;1.40;;;1.40;;
4646;SDS011;2336;47.822;7.564;2023-05-10T06:13:37;2.30;;;1.77;;
4646;SDS011;2336;47.822;7.564;2023-05-10T06:16:04;2.50;;;1.87;;
4646;SDS011;2336;47.822;7.564;2023-05-10T06:18:31;1.50;;;1.40;;
4646;SDS011;2336;47.822;7.564;2023-05-10T06:20:59;1.90;;;1.80;;
4646;SDS011;2336;47.822;7.564;2023-05-10T06:23:25;1.27;;;1.27;;
4646;SDS011;2336;47.822;7.564;2023-05-10T06:25:52;1.33;;;1.33;;
4646;SDS011;2336;47.822;7.564;2023-05-10T06:28:19;3.07;;;1.50;;
4646;SDS011;2336;47.822;7.564;2023-05-10T06:30:46;4.97;;;1.60;;
4646;SDS011;2336;47.822;7.564;2023-05-10T06:33:12;2.40;;;2.00;;
4646;SDS011;2336;47.822;7.564;2023-05-10T06:35:41;2.07;;;1.40;;
4646;SDS011;2336;47.822;7.564;2023-05-10T06:38:09;1.73;;;1.63;;
4646;SDS011;2336;47.822;7.564;2023-05-10T06:40:35;2.93;;;1.80;;
4646;SDS011;2336;47.822;7.564;2023-05-10T06:43:02;1.60;;;1.50;;
4646;SDS011;2336;47.822;7.564;2023-05-10T06:45:29;1.73;;;1.57;;
4646;SDS011;2336;47.822;7.564;2023-05-10T06:47:56;2.20;;;1.67;;
4646;SDS011;2336;47.822;7.564;2023-05-10T06:50:22;3.33;;;1.90;;
4646;SDS011;2336;47.822;7.564;2023-05-10T06:52:49;7.00;;;1.83;;
4646;SDS011;2336;47.822;7.564;2023-05-10T06:55:18;1.93;;;1.70;;
4646;SDS011;2336;47.822;7.564;2023-05-10T06:57:44;3.13;;;1.70;;
4646;SDS011;2336;47.822;7.564;2023-05-10T07:00:13;1.80;;;1.70;;
4646;SDS011;2336;47.822;7.564;2023-05-10T07:02:40;2.80;;;1.60;;
4646;SDS011;2336;47.822;7.564;2023-05-10T07:05:07;3.80;;;1.43;;
4646;SDS011;2336;47.822;7.564;2023-05-10T07:07:34;1.50;;;1.50;;
4646;SDS011;2336;47.822;7.564;2023-05-10T07:10:01;1.40;;;1.30;;
4646;SDS011;2336;47.822;7.564;2023-05-10T07:12:30;2.40;;;1.33;;
4646;SDS011;2336;47.822;7.564;2023-05-10T07:14:56;4.60;;;1.33;;
4646;SDS011;2336;47.822;7.564;2023-05-10T07:17:23;1.20;;;1.10;;
4646;SDS011;2336;47.822;7.564;2023-05-10T07:19:51;2.20;;;1.37;;
4646;SDS011;2336;47.822;7.564;2023-05-10T07:22:18;1.57;;;1.30;;
4646;SDS011;2336;47.822;7.564;2023-05-10T07:24:44;1.23;;;1.23;;
4646;SDS011;2336;47.822;7.564;2023-05-10T07:27:11;2.10;;;1.40;;
4646;SDS011;2336;47.822;7.564;2023-05-10T07:29:40;1.27;;;1.17;;
4646;SDS011;2336;47.822;7.564;2023-05-10T07:32:07;1.50;;;1.40;;
4646;SDS011;2336;47.822;7.564;2023-05-10T07:34:33;3.37;;;1.30;;
4646;SDS011;2336;47.822;7.564;2023-05-10T07:37:00;1.40;;;1.30;;
4646;SDS011;2336;47.822;7.564;2023-05-10T07:39:27;1.10;;;1.10;;
4646;SDS011;2336;47.822;7.564;2023-05-10T07:41:54;5.60;;;1.30;;
4646;SDS011;2336;47.822;7.564;2023-05-10T07:44:22;2.47;;;1.07;;
4646;SDS011;2336;47.822;7.564;2023-05-10T07:46:50;3.00;;;1.10;;
4646;SDS011;2336;47.822;7.564;2023-05-10T07:49:17;1.30;;;1.20;;
4646;SDS011;2336;47.822;7.564;2023-05-10T07:51:43;2.00;;;1.20;;
4646;SDS011;2336;47.822;7.564;2023-05-10T07:54:10;1.00;;;1.00;;
4646;SDS011;2336;47.822;7.564;2023-05-10T07:56:37;2.00;;;1.03;;
4646;SDS011;2336;47.822;7.564;2023-05-10T07:59:04;2.03;;;1.13;;
4646;SDS011;2336;47.822;7.564;2023-05-10T08:01:32;1.17;;;1.17;;
4646;SDS011;2336;47.822;7.564;2023-05-10T08:04:01;1.37;;;1.00;;
4646;SDS011;2336;47.822;7.564;2023-05-10T08:06:28;5.30;;;1.30;;
4646;SDS011;2336;47.822;7.564;2023-05-10T08:08:55;1.83;;;1.00;;
4646;SDS011;2336;47.822;7.564;2023-05-10T08:11:22;1.70;;;1.20;;
4646;SDS011;2336;47.822;7.564;2023-05-10T08:13:50;4.00;;;1.63;;
4646;SDS011;2336;47.822;7.564;2023-05-10T08:16:16;1.50;;;1.40;;
4646;SDS011;2336;47.822;7.564;2023-05-10T08:18:44;2.50;;;1.00;;
4646;SDS011;2336;47.822;7.564;2023-05-10T08:21:13;3.23;;;1.20;;
4646;SDS011;2336;47.822;7.564;2023-05-10T08:23:39;3.73;;;1.23;;
4646;SDS011;2336;47.822;7.564;2023-05-10T08:26:08;4.43;;;1.30;;
4646;SDS011;2336;47.822;7.564;2023-05-10T08:28:35;1.00;;;1.00;;
4646;SDS011;2336;47.822;7.564;2023-05-10T08:31:02;2.60;;;0.90;;
4646;SDS011;2336;47.822;7.564;2023-05-10T08:33:28;3.70;;;1.00;;
4646;SDS011;2336;47.822;7.564;2023-05-10T08:35:55;1.10;;;0.80;;
4646;SDS011;2336;47.822;7.564;2023-05-10T08:38:23;6.20;;;1.37;;
4646;SDS011;2336;47.822;7.564;2023-05-10T08:40:50;3.03;;;1.07;;
4646;SDS011;2336;47.822;7.564;2023-05-10T08:43:23;2.60;;;0.60;;
4646;SDS011;2336;47.822;7.564;2023-05-10T08:45:53;1.20;;;0.80;;
4646;SDS011;2336;47.822;7.564;2023-05-10T08:48:21;1.40;;;0.80;;
4646;SDS011;2336;47.822;7.564;2023-05-10T08:50:49;3.83;;;0.90;;
4646;SDS011;2336;47.822;7.564;2023-05-10T08:53:18;3.83;;;1.00;;
4646;SDS011;2336;47.822;7.564;2023-05-10T08:55:47;1.80;;;1.00;;
4646;SDS011;2336;47.822;7.564;2023-05-10T08:58:14;0.77;;;0.70;;
4646;SDS011;2336;47.822;7.564;2023-05-10T09:00:41;3.80;;;0.80;;
4646;SDS011;2336;47.822;7.564;2023-05-10T09:03:08;0.77;;;0.67;;
4646;SDS011;2336;47.822;7.564;2023-05-10T09:05:36;1.17;;;0.80;;
4646;SDS011;2336;47.822;7.564;2023-05-10T09:08:03;1.17;;;0.90;;
4646;SDS011;2336;47.822;7.564;2023-05-10T09:10:30;2.20;;;0.80;;
4646;SDS011;2336;47.822;7.564;2023-05-10T09:12:59;3.53;;;0.70;;
4646;SDS011;2336;47.822;7.564;2023-05-10T09:15:25;2.97;;;0.60;;
4646;SDS011;2336;47.822;7.564;2023-05-10T09:17:52;0.90;;;0.90;;
4646;SDS011;2336;47.822;7.564;2023-05-10T09:20:20;1.17;;;0.70;;
4646;SDS011;2336;47.822;7.564;2023-05-10T09:22:47;0.83;;;0.60;;
4646;SDS011;2336;47.822;7.564;2023-05-10T09:25:15;0.97;;;0.80;;
4646;SDS011;2336;47.822;7.564;2023-05-10T09:27:44;0.80;;;0.70;;
4646;SDS011;2336;47.822;7.564;2023-05-10T09:30:16;0.77;;;0.70;;
4646;SDS011;2336;47.822;7.564;2023-05-10T09:32:48;2.97;;;0.70;;
4646;SDS011;2336;47.822;7.564;2023-05-10T09:35:17;0.70;;;0.70;;
4646;SDS011;2336;47.822;7.564;2023-05-10T09:37:45;0.97;;;0.90;;
4646;SDS011;2336;47.822;7.564;2023-05-10T09:40:14;1.13;;;0.70;;
4646;SDS011;2336;47.822;7.564;2023-05-10T09:42:42;1.67;;;0.80;;
4646;SDS011;2336;47.822;7.564;2023-05-10T09:45:18;2.03;;;1.00;;
4646;SDS011;2336;47.822;7.564;2023-05-10T09:47:45;1.00;;;0.70;;
4646;SDS011;2336;47.822;7.564;2023-05-10T09:50:12;2.73;;;1.00;;
4646;SDS011;2336;47.822;7.564;2023-05-10T09:52:45;1.80;;;0.90;;
4646;SDS011;2336;47.822;7.564;2023-05-10T09:55:13;0.90;;;0.90;;
4646;SDS011;2336;47.822;7.564;2023-05-10T09:57:40;1.33;;;0.70;;
4646;SDS011;2336;47.822;7.564;2023-05-10T10:00:08;0.70;;;0.70;;
4646;SDS011;2336;47.822;7.564;2023-05-10T10:02:37;1.27;;;0.80;;
4646;SDS011;2336;47.822;7.564;2023-05-10T10:05:06;0.90;;;0.80;;
4646;SDS011;2336;47.822;7.564;2023-05-10T10:07:33;0.60;;;0.60;;
4646;SDS011;2336;47.822;7.564;2023-05-10T10:10:00;0.73;;;0.73;;
4646;SDS011;2336;47.822;7.564;2023-05-10T10:12:27;5.40;;;0.80;;
4646;SDS011;2336;47.822;7.564;2023-05-10T10:14:54;0.87;;;0.73;;
4646;SDS011;2336;47.822;7.564;2023-05-10T10:17:22;1.07;;;0.83;;
4646;SDS011;2336;47.822;7.564;2023-05-10T10:19:52;1.43;;;1.00;;
4646;SDS011;2336;47.822;7.564;2023-05-10T10:22:19;1.37;;;0.87;;
4646;SDS011;2336;47.822;7.564;2023-05-10T10:24:45;1.40;;;0.90;;
4646;SDS011;2336;47.822;7.564;2023-05-10T10:27:15;1.13;;;0.83;;
4646;SDS011;2336;47.822;7.564;2023-05-10T10:29:51;0.70;;;0.70;;
4646;SDS011;2336;47.822;7.564;2023-05-10T10:32:26;0.80;;;0.80;;
4646;SDS011;2336;47.822;7.564;2023-05-10T10:35:00;1.37;;;1.27;;
4646;SDS011;2336;47.822;7.564;2023-05-10T10:37:40;1.37;;;1.03;;
4646;SDS011;2336;47.822;7.564;2023-05-10T10:40:24;1.00;;;0.70;;
4646;SDS011;2336;47.822;7.564;2023-05-10T10:42:52;1.23;;;0.80;;
4646;SDS011;2336;47.822;7.564;2023-05-10T10:45:20;1.17;;;0.97;;
4646;SDS011;2336;47.822;7.564;2023-05-10T10:47:47;2.83;;;0.90;;
4646;SDS011;2336;47.822;7.564;2023-05-10T10:50:16;2.87;;;0.90;;
4646;SDS011;2336;47.822;7.564;2023-05-10T10:52:43;1.27;;;0.83;;
4646;SDS011;2336;47.822;7.564;2023-05-10T10:55:10;1.37;;;1.00;;
4646;SDS011;2336;47.822;7.564;2023-05-10T10:57:45;0.80;;;0.80;;
4646;SDS011;2336;47.822;7.564;2023-05-10T11:00:20;1.67;;;1.07;;
4646;SDS011;2336;47.822;7.564;2023-05-10T11:02:58;1.63;;;1.20;;
4646;SDS011;2336;47.822;7.564;2023-05-10T11:05:34;2.30;;;0.70;;
4646;SDS011;2336;47.822;7.564;2023-05-10T11:08:06;1.00;;;1.00;;
4646;SDS011;2336;47.822;7.564;2023-05-10T11:10:35;1.13;;;0.80;;
4646;SDS011;2336;47.822;7.564;2023-05-10T11:13:02;2.30;;;0.60;;
4646;SDS011;2336;47.822;7.564;2023-05-10T11:15:29;1.50;;;0.90;;
4646;SDS011;2336;47.822;7.564;2023-05-10T11:17:57;1.07;;;0.77;;
4646;SDS011;2336;47.822;7.564;2023-05-10T11:20:26;0.60;;;0.60;;
4646;SDS011;2336;47.822;7.564;2023-05-10T11:23:10;1.23;;;0.50;;
4646;SDS011;2336;47.822;7.564;2023-05-10T11:25:41;0.87;;;0.70;;
4646;SDS011;2336;47.822;7.564;2023-05-10T11:28:09;4.73;;;0.60;;
4646;SDS011;2336;47.822;7.564;2023-05-10T11:30:37;2.40;;;0.70;;
4646;SDS011;2336;47.822;7.564;2023-05-10T11:33:05;1.33;;;0.70;;
4646;SDS011;2336;47.822;7.564;2023-05-10T11:35:36;1.20;;;0.87;;
4646;SDS011;2336;47.822;7.564;2023-05-10T11:38:06;1.83;;;0.60;;
4646;SDS011;2336;47.822;7.564;2023-05-10T11:40:33;2.43;;;0.70;;
4646;SDS011;2336;47.822;7.564;2023-05-10T11:43:00;3.73;;;0.70;;
4646;SDS011;2336;47.822;7.564;2023-05-10T11:45:27;0.90;;;0.70;;
4646;SDS011;2336;47.822;7.564;2023-05-10T11:47:56;1.50;;;0.77;;
4646;SDS011;2336;47.822;7.564;2023-05-10T11:50:23;1.00;;;0.60;;
4646;SDS011;2336;47.822;7.564;2023-05-10T11:52:51;1.17;;;0.70;;
4646;SDS011;2336;47.822;7.564;2023-05-10T11:55:19;1.67;;;0.70;;
4646;SDS011;2336;47.822;7.564;2023-05-10T11:57:46;1.33;;;0.90;;
4646;SDS011;2336;47.822;7.564;2023-05-10T12:00:13;2.87;;;1.03;;
4646;SDS011;2336;47.822;7.564;2023-05-10T12:02:40;0.87;;;0.70;;
4646;SDS011;2336;47.822;7.564;2023-05-10T12:05:08;1.23;;;0.70;;
4646;SDS011;2336;47.822;7.564;2023-05-10T12:07:36;0.70;;;0.50;;
4646;SDS011;2336;47.822;7.564;2023-05-10T12:10:04;3.40;;;0.60;;
4646;SDS011;2336;47.822;7.564;2023-05-10T12:12:39;1.40;;;0.80;;
4646;SDS011;2336;47.822;7.564;2023-05-10T12:15:11;0.70;;;0.50;;
4646;SDS011;2336;47.822;7.564;2023-05-10T12:17:43;1.43;;;0.63;;
4646;SDS011;2336;47.822;7.564;2023-05-10T12:20:14;0.67;;;0.67;;
4646;SDS011;2336;47.822;7.564;2023-05-10T12:22:45;0.97;;;0.50;;
4646;SDS011;2336;47.822;7.564;2023-05-10T12:25:13;3.00;;;0.60;;
4646;SDS011;2336;47.822;7.564;2023-05-10T12:27:41;0.73;;;0.70;;
4646;SDS011;2336;47.822;7.564;2023-05-10T12:30:17;0.70;;;0.70;;
4646;SDS011;2336;47.822;7.564;2023-05-10T12:32:45;0.60;;;0.50;;
4646;SDS011;2336;47.822;7.564;2023-05-10T12:35:12;4.67;;;0.60;;
4646;SDS011;2336;47.822;7.564;2023-05-10T12:37:40;1.50;;;0.60;;
4646;SDS011;2336;47.822;7.564;2023-05-10T12:40:08;0.50;;;0.50;;
4646;SDS011;2336;47.822;7.564;2023-05-10T12:42:36;1.57;;;0.60;;
4646;SDS011;2336;47.822;7.564;2023-05-10T12:45:07;1.13;;;0.70;;
4646;SDS011;2336;47.822;7.564;2023-05-10T12:47:34;0.50;;;0.50;;
4646;SDS011;2336;47.822;7.564;2023-05-10T12:50:01;0.70;;;0.70;;
4646;SDS011;2336;47.822;7.564;2023-05-10T12:52:29;0.60;;;0.60;;
4646;SDS011;2336;47.822;7.564;2023-05-10T12:54:57;0.50;;;0.50;;
4646;SDS011;2336;47.822;7.564;2023-05-10T12:57:24;0.60;;;0.60;;
4646;SDS011;2336;47.822;7.564;2023-05-10T12:59:51;0.50;;;0.50;;
4646;SDS011;2336;47.822;7.564;2023-05-10T13:02:19;0.70;;;0.60;;
4646;SDS011;2336;47.822;7.564;2023-05-10T13:04:46;1.17;;;0.50;;
4646;SDS011;2336;47.822;7.564;2023-05-10T13:07:13;2.73;;;0.60;;
4646;SDS011;2336;47.822;7.564;2023-05-10T13:09:40;0.50;;;0.50;;
4646;SDS011;2336;47.822;7.564;2023-05-10T13:12:06;0.50;;;0.50;;
4646;SDS011;2336;47.822;7.564;2023-05-10T13:14:33;0.50;;;0.50;;
4646;SDS011;2336;47.822;7.564;2023-05-10T13:17:00;0.70;;;0.50;;
4646;SDS011;2336;47.822;7.564;2023-05-10T13:19:28;0.80;;;0.60;;
4646;SDS011;2336;47.822;7.564;2023-05-10T13:21:55;2.30;;;0.53;;
4646;SDS011;2336;47.822;7.564;2023-05-10T13:24:22;0.40;;;0.40;;
4646;SDS011;2336;47.822;7.564;2023-05-10T13:26:48;0.40;;;0.40;;
4646;SDS011;2336;47.822;7.564;2023-05-10T13:29:15;0.40;;;0.40;;
4646;SDS011;2336;47.822;7.564;2023-05-10T13:31:43;0.50;;;0.50;;
4646;SDS011;2336;47.822;7.564;2023-05-10T13:34:10;0.60;;;0.60;;
4646;SDS011;2336;47.822;7.564;2023-05-10T13:36:38;0.70;;;0.70;;
4646;SDS011;2336;47.822;7.564;2023-05-10T13:39:05;1.50;;;0.60;;
4646;SDS011;2336;47.822;7.564;2023-05-10T13:41:31;0.40;;;0.40;;
4646;SDS011;2336;47.822;7.564;2023-05-10T13:43:58;0.60;;;0.60;;
4646;SDS011;2336;47.822;7.564;2023-05-10T13:46:25;0.50;;;0.50;;
4646;SDS011;2336;47.822;7.564;2023-05-10T13:48:52;0.50;;;0.50;;
4646;SDS011;2336;47.822;7.564;2023-05-10T13:51:19;1.43;;;0.90;;
4646;SDS011;2336;47.822;7.564;2023-05-10T13:53:47;0.70;;;0.60;;
4646;SDS011;2336;47.822;7.564;2023-05-10T13:56:13;1.50;;;0.50;;
4646;SDS011;2336;47.822;7.564;2023-05-10T13:58:40;1.37;;;0.70;;
4646;SDS011;2336;47.822;7.564;2023-05-10T14:01:07;0.90;;;0.73;;
4646;SDS011;2336;47.822;7.564;2023-05-10T14:03:34;0.60;;;0.60;;
4646;SDS011;2336;47.822;7.564;2023-05-10T14:06:00;0.63;;;0.63;;
4646;SDS011;2336;47.822;7.564;2023-05-10T14:08:27;0.57;;;0.57;;
4646;SDS011;2336;47.822;7.564;2023-05-10T14:10:55;0.90;;;0.70;;
4646;SDS011;2336;47.822;7.564;2023-05-10T14:13:22;2.10;;;0.50;;
4646;SDS011;2336;47.822;7.564;2023-05-10T14:15:49;0.60;;;0.60;;
4646;SDS011;2336;47.822;7.564;2023-05-10T14:18:16;0.50;;;0.50;;
4646;SDS011;2336;47.822;7.564;2023-05-10T14:20:43;1.90;;;0.60;;
4646;SDS011;2336;47.822;7.564;2023-05-10T14:23:10;0.60;;;0.60;;
4646;SDS011;2336;47.822;7.564;2023-05-10T14:25:37;0.93;;;0.60;;
4646;SDS011;2336;47.822;7.564;2023-05-10T14:28:05;2.87;;;0.67;;
4646;SDS011;2336;47.822;7.564;2023-05-10T14:30:32;0.87;;;0.60;;
4646;SDS011;2336;47.822;7.564;2023-05-10T14:33:00;0.60;;;0.60;;
4646;SDS011;2336;47.822;7.564;2023-05-10T14:35:27;0.60;;;0.60;;
4646;SDS011;2336;47.822;7.564;2023-05-10T14:37:55;2.03;;;0.63;;
4646;SDS011;2336;47.822;7.564;2023-05-10T14:40:22;0.60;;;0.60;;
4646;SDS011;2336;47.822;7.564;2023-05-10T14:42:49;0.70;;;0.70;;
4646;SDS011;2336;47.822;7.564;2023-05-10T14:45:19;1.37;;;0.70;;
4646;SDS011;2336;47.822;7.564;2023-05-10T14:47:46;0.50;;;0.50;;
4646;SDS011;2336;47.822;7.564;2023-05-10T14:50:13;2.77;;;0.70;;
4646;SDS011;2336;47.822;7.564;2023-05-10T14:52:40;2.10;;;0.60;;
4646;SDS011;2336;47.822;7.564;2023-05-10T14:55:07;0.83;;;0.70;;
4646;SDS011;2336;47.822;7.564;2023-05-10T14:57:35;0.60;;;0.60;;
4646;SDS011;2336;47.822;7.564;2023-05-10T15:00:02;0.77;;;0.60;;
4646;SDS011;2336;47.822;7.564;2023-05-10T15:02:33;1.20;;;0.60;;
4646;SDS011;2336;47.822;7.564;2023-05-10T15:05:00;0.83;;;0.60;;
4646;SDS011;2336;47.822;7.564;2023-05-10T15:07:26;0.80;;;0.80;;
4646;SDS011;2336;47.822;7.564;2023-05-10T15:09:56;0.80;;;0.67;;
4646;SDS011;2336;47.822;7.564;2023-05-10T15:12:23;0.70;;;0.60;;
4646;SDS011;2336;47.822;7.564;2023-05-10T15:14:49;0.87;;;0.70;;
4646;SDS011;2336;47.822;7.564;2023-05-10T15:17:16;1.00;;;0.70;;
4646;SDS011;2336;47.822;7.564;2023-05-10T15:19:44;0.90;;;0.70;;
4646;SDS011;2336;47.822;7.564;2023-05-10T15:22:11;0.50;;;0.50;;